createdAt,value
2016-07-30T00:00:24.024Z,1007.45
2016-07-30T00:01:24.026Z,1007.47
2016-07-30T00:02:24.025Z,1007.46
2016-07-30T00:03:24.024Z,1007.44
2016-07-30T00:04:24.024Z,1007.42
2016-07-30T00:05:24.023Z,1007.49
2016-07-30T00:06:25.331Z,1007.47
2016-07-30T00:07:24.435Z,1007.43
2016-07-30T00:08:24.022Z,1007.48
2016-07-30T00:09:24.022Z,1007.49
2016-07-30T00:10:24.022Z,1007.47
2016-07-30T00:11:24.022Z,1007.5
2016-07-30T00:12:24.022Z,1007.47
2016-07-30T00:13:24.022Z,1007.46
2016-07-30T00:14:24.023Z,1007.46
2016-07-30T00:15:24.022Z,1007.46
2016-07-30T00:16:24.031Z,1007.47
2016-07-30T00:17:24.280Z,1007.44
2016-07-30T00:18:24.022Z,1007.47
2016-07-30T00:19:24.022Z,1007.43
2016-07-30T00:20:24.115Z,1007.47
2016-07-30T00:21:24.022Z,1007.45
2016-07-30T00:22:24.023Z,1007.47
2016-07-30T00:23:24.022Z,1007.46
2016-07-30T00:24:24.022Z,1007.48
2016-07-30T00:25:24.020Z,1007.5
2016-07-30T00:26:24.020Z,1007.44
2016-07-30T00:27:24.021Z,1007.5
2016-07-30T00:28:24.021Z,1007.52
2016-07-30T00:29:24.019Z,1007.55
2016-07-30T00:30:24.019Z,1007.54
2016-07-30T00:31:24.020Z,1007.57
2016-07-30T00:32:24.020Z,1007.55
2016-07-30T00:33:24.019Z,1007.54
2016-07-30T00:34:24.018Z,1007.5
2016-07-30T00:35:24.021Z,1007.49
2016-07-30T00:36:24.020Z,1007.52
2016-07-30T00:37:24.018Z,1007.48
2016-07-30T00:38:24.618Z,1007.47
2016-07-30T00:39:24.019Z,1007.48
2016-07-30T00:40:24.018Z,1007.45
2016-07-30T00:41:24.019Z,1007.46
2016-07-30T00:42:24.019Z,1007.47
2016-07-30T00:43:24.022Z,1007.44
2016-07-30T00:44:24.018Z,1007.44
2016-07-30T00:45:24.016Z,1007.41
2016-07-30T00:46:24.017Z,1007.38
2016-07-30T00:47:24.017Z,1007.38
2016-07-30T00:48:24.019Z,1007.35
2016-07-30T00:49:24.018Z,1007.34
2016-07-30T00:50:24.016Z,1007.31
2016-07-30T00:51:24.016Z,1007.3
2016-07-30T00:52:24.017Z,1007.31
2016-07-30T00:53:24.018Z,1007.27
2016-07-30T00:54:24.018Z,1007.3
2016-07-30T00:55:24.018Z,1007.28
2016-07-30T00:56:24.016Z,1007.24
2016-07-30T00:57:24.016Z,1007.28
2016-07-30T00:58:24.017Z,1007.3
2016-07-30T00:59:24.017Z,1007.33
2016-07-30T01:00:24.017Z,1007.36
2016-07-30T01:01:24.019Z,1007.36
2016-07-30T01:02:24.019Z,1007.35
2016-07-30T01:03:24.017Z,1007.33
2016-07-30T01:04:24.018Z,1007.32
2016-07-30T01:05:24.017Z,1007.36
2016-07-30T01:06:24.017Z,1007.37
2016-07-30T01:07:24.019Z,1007.33
2016-07-30T01:08:24.017Z,1007.35
2016-07-30T01:09:24.018Z,1007.34
2016-07-30T01:10:24.018Z,1007.32
2016-07-30T01:11:24.019Z,1007.28
2016-07-30T01:12:24.020Z,1007.28
2016-07-30T01:13:24.017Z,1007.23
2016-07-30T01:14:24.018Z,1007.28
2016-07-30T01:15:24.017Z,1007.23
2016-07-30T01:16:24.017Z,1007.26
2016-07-30T01:17:24.017Z,1007.21
2016-07-30T01:18:24.019Z,1007.21
2016-07-30T01:19:24.016Z,1007.21
2016-07-30T01:20:24.018Z,1007.21
2016-07-30T01:21:24.018Z,1007.2
2016-07-30T01:23:24.019Z,1007.26
2016-07-30T01:24:24.018Z,1007.24
2016-07-30T01:25:24.017Z,1007.3
2016-07-30T01:26:25.355Z,1007.31
2016-07-30T01:27:24.019Z,1007.3
2016-07-30T01:28:24.197Z,1007.28
2016-07-30T01:29:24.015Z,1007.27
2016-07-30T01:30:24.015Z,1007.35
2016-07-30T01:31:24.018Z,1007.36
2016-07-30T01:32:24.016Z,1007.39
2016-07-30T01:33:24.016Z,1007.34
2016-07-30T01:34:24.015Z,1007.36
2016-07-30T01:35:24.125Z,1007.38
2016-07-30T01:36:24.014Z,1007.39
2016-07-30T01:38:24.015Z,1007.37
2016-07-30T01:39:24.015Z,1007.48
2016-07-30T01:40:24.016Z,1007.46
2016-07-30T01:41:24.014Z,1007.43
2016-07-30T01:42:24.016Z,1007.42
2016-07-30T01:43:24.016Z,1007.42
2016-07-30T01:44:24.013Z,1007.4
2016-07-30T01:45:24.016Z,1007.39
2016-07-30T01:46:24.013Z,1007.41
2016-07-30T01:47:24.916Z,1007.41
2016-07-30T01:48:24.014Z,1007.42
2016-07-30T01:49:24.013Z,1007.45
2016-07-30T01:50:24.016Z,1007.43
2016-07-30T01:51:24.013Z,1007.44
2016-07-30T01:53:24.111Z,1007.41
2016-07-30T01:54:24.013Z,1007.43
2016-07-30T01:55:24.010Z,1007.42
2016-07-30T01:56:24.010Z,1007.41
2016-07-30T01:57:25.163Z,1007.45
2016-07-30T01:58:24.008Z,1007.42
2016-07-30T01:59:24.009Z,1007.44
2016-07-30T02:00:24.010Z,1007.41
2016-07-30T02:01:24.008Z,1007.42
2016-07-30T02:02:24.008Z,1007.43
2016-07-30T02:03:24.007Z,1007.42
2016-07-30T02:04:24.007Z,1007.44
2016-07-30T02:05:24.007Z,1007.44
2016-07-30T02:06:24.008Z,1007.39
2016-07-30T02:08:24.007Z,1007.38
2016-07-30T02:09:24.004Z,1007.42
2016-07-30T02:10:24.006Z,1007.4
2016-07-30T02:11:24.005Z,1007.43
2016-07-30T02:12:24.004Z,1007.38
2016-07-30T02:13:24.002Z,1007.41
2016-07-30T02:14:24.003Z,1007.38
2016-07-30T02:15:24.001Z,1007.38
2016-07-30T02:16:24.000Z,1007.36
2016-07-30T02:17:24.001Z,1007.33
2016-07-30T02:18:24.000Z,1007.31
2016-07-30T02:19:23.998Z,1007.32
2016-07-30T02:20:23.998Z,1007.29
2016-07-30T02:21:23.997Z,1007.33
2016-07-30T02:23:23.997Z,1007.34
2016-07-30T02:24:23.992Z,1007.33
2016-07-30T02:25:23.994Z,1007.33
2016-07-30T02:26:23.992Z,1007.34
2016-07-30T02:27:23.994Z,1007.38
2016-07-30T02:28:23.992Z,1007.39
2016-07-30T02:29:23.988Z,1007.42
2016-07-30T02:30:23.987Z,1007.43
2016-07-30T02:31:23.987Z,1007.43
2016-07-30T02:32:23.988Z,1007.42
2016-07-30T02:33:23.984Z,1007.41
2016-07-30T02:34:23.986Z,1007.44
2016-07-30T02:35:23.981Z,1007.45
2016-07-30T02:36:23.982Z,1007.45
2016-07-30T02:38:23.980Z,1007.43
2016-07-30T02:39:23.979Z,1007.4
2016-07-30T02:40:23.977Z,1007.43
2016-07-30T02:41:23.979Z,1007.44
2016-07-30T02:42:23.976Z,1007.42
2016-07-30T02:43:23.973Z,1007.46
2016-07-30T02:44:25.101Z,1007.44
2016-07-30T02:45:24.410Z,1007.42
2016-07-30T02:46:23.971Z,1007.4
2016-07-30T02:47:23.975Z,1007.4
2016-07-30T02:48:23.966Z,1007.4
2016-07-30T02:49:23.966Z,1007.43
2016-07-30T02:50:23.964Z,1007.42
2016-07-30T02:51:23.963Z,1007.39
2016-07-30T02:52:25.402Z,1007.4
2016-07-30T02:53:23.961Z,1007.36
2016-07-30T02:54:23.960Z,1007.34
2016-07-30T02:55:23.956Z,1007.38
2016-07-30T02:56:23.955Z,1007.35
2016-07-30T02:57:23.955Z,1007.34
2016-07-30T02:58:23.955Z,1007.29
2016-07-30T02:59:24.050Z,1007.24
2016-07-30T03:00:23.948Z,1007.24
2016-07-30T03:01:23.947Z,1007.18
2016-07-30T03:02:23.947Z,1007.2
2016-07-30T03:03:23.947Z,1007.16
2016-07-30T03:04:23.945Z,1007.13
2016-07-30T03:05:23.941Z,1007.14
2016-07-30T03:07:23.942Z,1007.06
2016-07-30T03:08:23.937Z,1007.08
2016-07-30T03:09:24.489Z,1007.12
2016-07-30T03:10:23.934Z,1007.14
2016-07-30T03:11:23.932Z,1007.18
2016-07-30T03:12:23.931Z,1007.2
2016-07-30T03:13:23.929Z,1007.19
2016-07-30T03:14:23.928Z,1007.19
2016-07-30T03:15:23.934Z,1007.24
2016-07-30T03:16:23.926Z,1007.24
2016-07-30T03:17:23.923Z,1007.26
2016-07-30T03:18:24.272Z,1007.26
2016-07-30T03:19:23.919Z,1007.27
2016-07-30T03:20:23.919Z,1007.32
2016-07-30T03:21:23.917Z,1007.31
2016-07-30T03:22:23.914Z,1007.27
2016-07-30T03:23:23.915Z,1007.24
2016-07-30T03:24:23.913Z,1007.24
2016-07-30T03:25:23.910Z,1007.17
2016-07-30T03:26:23.908Z,1007.19
2016-07-30T03:27:23.907Z,1007.17
2016-07-30T03:28:23.906Z,1007.19
2016-07-30T03:29:23.904Z,1007.15
2016-07-30T03:30:23.904Z,1007.2
2016-07-30T03:31:23.899Z,1007.21
2016-07-30T03:32:23.900Z,1007.23
2016-07-30T03:33:23.896Z,1007.23
2016-07-30T03:34:23.894Z,1007.22
2016-07-30T03:35:23.893Z,1007.21
2016-07-30T03:36:23.891Z,1007.21
2016-07-30T03:37:23.891Z,1007.21
2016-07-30T03:38:23.893Z,1007.23
2016-07-30T03:39:23.888Z,1007.27
2016-07-30T03:40:23.885Z,1007.29
2016-07-30T03:41:23.882Z,1007.29
2016-07-30T03:42:23.884Z,1007.32
2016-07-30T03:43:23.882Z,1007.32
2016-07-30T03:44:23.878Z,1007.35
2016-07-30T03:45:23.879Z,1007.37
2016-07-30T03:46:23.875Z,1007.37
2016-07-30T03:47:23.874Z,1007.39
2016-07-30T03:48:23.872Z,1007.37
2016-07-30T03:49:23.873Z,1007.42
2016-07-30T03:50:23.869Z,1007.41
2016-07-30T03:51:23.869Z,1007.46
2016-07-30T03:52:23.866Z,1007.49
2016-07-30T03:53:23.865Z,1007.52
2016-07-30T03:54:23.864Z,1007.53
2016-07-30T03:55:23.860Z,1007.58
2016-07-30T03:56:23.858Z,1007.58
2016-07-30T03:57:23.859Z,1007.58
2016-07-30T03:58:23.855Z,1007.62
2016-07-30T03:59:23.854Z,1007.61
2016-07-30T04:00:23.855Z,1007.57
2016-07-30T04:02:24.120Z,1007.67
2016-07-30T04:03:24.551Z,1007.77
2016-07-30T04:04:23.849Z,1007.75
2016-07-30T04:05:23.847Z,1007.78
2016-07-30T04:06:23.845Z,1007.79
2016-07-30T04:07:23.844Z,1007.76
2016-07-30T04:08:23.844Z,1007.74
2016-07-30T04:10:23.841Z,1007.74
2016-07-30T04:11:23.839Z,1007.73
2016-07-30T04:12:23.842Z,1007.75
2016-07-30T04:13:23.836Z,1007.77
2016-07-30T04:14:23.837Z,1007.77
2016-07-30T04:15:23.836Z,1007.79
2016-07-30T04:16:23.835Z,1007.81
2016-07-30T04:17:23.832Z,1007.81
2016-07-30T04:18:23.834Z,1007.81
2016-07-30T04:19:23.832Z,1007.81
2016-07-30T04:20:23.831Z,1007.83
2016-07-30T04:21:23.831Z,1007.88
2016-07-30T04:22:23.830Z,1007.89
2016-07-30T04:23:23.830Z,1007.9
2016-07-30T04:24:23.831Z,1007.85
2016-07-30T04:25:23.829Z,1007.85
2016-07-30T04:26:23.832Z,1007.89
2016-07-30T04:27:23.832Z,1007.94
2016-07-30T04:28:23.830Z,1007.94
2016-07-30T04:29:23.831Z,1007.93
2016-07-30T04:30:23.834Z,1007.86
2016-07-30T04:31:23.831Z,1007.85
2016-07-30T04:32:24.332Z,1007.81
2016-07-30T04:33:23.833Z,1007.8
2016-07-30T04:34:23.835Z,1007.79
2016-07-30T04:35:23.834Z,1007.83
2016-07-30T04:36:23.835Z,1007.78
2016-07-30T04:37:23.836Z,1007.82
2016-07-30T04:38:23.840Z,1007.82
2016-07-30T04:39:23.840Z,1007.84
2016-07-30T04:40:23.940Z,1007.86
2016-07-30T04:41:23.843Z,1007.9
2016-07-30T04:42:23.842Z,1007.9
2016-07-30T04:43:23.843Z,1007.95
2016-07-30T04:44:23.845Z,1007.88
2016-07-30T04:45:23.848Z,1007.86
2016-07-30T04:46:23.849Z,1007.87
2016-07-30T04:47:23.851Z,1007.81
2016-07-30T04:48:23.851Z,1007.82
2016-07-30T04:49:23.853Z,1007.88
2016-07-30T04:50:23.857Z,1007.94
2016-07-30T04:51:23.859Z,1007.95
2016-07-30T04:52:23.858Z,1007.95
2016-07-30T04:53:23.862Z,1007.94
2016-07-30T04:54:23.862Z,1007.99
2016-07-30T04:55:23.864Z,1008.02
2016-07-30T04:56:23.867Z,1008.01
2016-07-30T04:57:23.881Z,1008.03
2016-07-30T04:58:23.870Z,1007.98
2016-07-30T04:59:23.874Z,1008.02
2016-07-30T05:00:23.875Z,1007.97
2016-07-30T05:01:23.877Z,1007.91
2016-07-30T05:02:23.879Z,1007.9
2016-07-30T05:03:23.883Z,1007.96
2016-07-30T05:04:23.886Z,1007.96
2016-07-30T05:05:23.890Z,1007.97
2016-07-30T05:06:23.892Z,1007.93
2016-07-30T05:07:23.897Z,1007.97
2016-07-30T05:08:23.899Z,1007.95
2016-07-30T05:09:23.900Z,1008.01
2016-07-30T05:10:23.906Z,1008.05
2016-07-30T05:11:23.908Z,1008.01
2016-07-30T05:12:23.911Z,1007.97
2016-07-30T05:13:23.915Z,1007.98
2016-07-30T05:14:23.916Z,1008
2016-07-30T05:15:23.920Z,1008.02
2016-07-30T05:16:23.922Z,1008
2016-07-30T05:17:23.924Z,1008.03
2016-07-30T05:18:23.930Z,1008.03
2016-07-30T05:19:23.930Z,1008.06
2016-07-30T05:20:23.935Z,1008.08
2016-07-30T05:21:23.936Z,1008.1
2016-07-30T05:22:23.939Z,1008.14
2016-07-30T05:23:23.941Z,1008.16
2016-07-30T05:24:23.946Z,1008.16
2016-07-30T05:25:23.949Z,1008.1
2016-07-30T05:26:23.952Z,1008.14
2016-07-30T05:27:23.952Z,1008.1
2016-07-30T05:28:25.499Z,1008.09
2016-07-30T05:29:25.169Z,1008.16
2016-07-30T05:30:23.962Z,1008.21
2016-07-30T05:31:24.972Z,1008.14
2016-07-30T05:32:23.965Z,1008.24
2016-07-30T05:33:23.982Z,1008.19
2016-07-30T05:34:23.974Z,1008.22
2016-07-30T05:35:23.974Z,1008.25
2016-07-30T05:36:23.977Z,1008.28
2016-07-30T05:37:23.981Z,1008.33
2016-07-30T05:39:23.985Z,1008.3
2016-07-30T05:40:23.991Z,1008.29
2016-07-30T05:41:23.991Z,1008.27
2016-07-30T05:42:23.996Z,1008.27
2016-07-30T05:43:24.001Z,1008.26
2016-07-30T05:44:24.004Z,1008.3
2016-07-30T05:45:24.004Z,1008.29
2016-07-30T05:46:24.010Z,1008.33
2016-07-30T05:47:24.012Z,1008.32
2016-07-30T05:48:24.013Z,1008.33
2016-07-30T05:49:24.017Z,1008.32
2016-07-30T05:50:24.022Z,1008.34
2016-07-30T05:51:24.776Z,1008.36
2016-07-30T05:52:24.977Z,1008.37
2016-07-30T05:54:24.032Z,1008.33
2016-07-30T05:55:24.038Z,1008.31
2016-07-30T05:56:24.041Z,1008.33
2016-07-30T05:57:24.042Z,1008.31
2016-07-30T05:58:24.057Z,1008.35
2016-07-30T05:59:24.048Z,1008.37
2016-07-30T06:00:24.053Z,1008.42
2016-07-30T06:01:24.057Z,1008.42
2016-07-30T06:02:24.058Z,1008.4
2016-07-30T06:03:24.060Z,1008.44
2016-07-30T06:04:24.064Z,1008.44
2016-07-30T06:05:24.068Z,1008.46
2016-07-30T06:06:24.071Z,1008.5
2016-07-30T06:07:24.076Z,1008.46
2016-07-30T06:09:24.083Z,1008.56
2016-07-30T06:10:24.085Z,1008.6
2016-07-30T06:11:24.088Z,1008.58
2016-07-30T06:12:24.092Z,1008.54
2016-07-30T06:13:24.100Z,1008.56
2016-07-30T06:14:24.099Z,1008.6
2016-07-30T06:15:24.103Z,1008.61
2016-07-30T06:16:24.107Z,1008.63
2016-07-30T06:17:24.111Z,1008.61
2016-07-30T06:18:24.118Z,1008.6
2016-07-30T06:19:24.120Z,1008.55
2016-07-30T06:20:24.128Z,1008.54
2016-07-30T06:21:24.127Z,1008.53
2016-07-30T06:22:24.130Z,1008.57
2016-07-30T06:24:24.141Z,1008.63
2016-07-30T06:25:24.142Z,1008.61
2016-07-30T06:26:24.149Z,1008.58
2016-07-30T06:27:24.152Z,1008.65
2016-07-30T06:28:24.157Z,1008.67
2016-07-30T06:29:24.160Z,1008.66
2016-07-30T06:30:24.164Z,1008.69
2016-07-30T06:31:24.169Z,1008.67
2016-07-30T06:32:24.175Z,1008.66
2016-07-30T06:33:24.177Z,1008.65
2016-07-30T06:34:24.182Z,1008.67
2016-07-30T06:35:24.188Z,1008.65
2016-07-30T06:36:24.192Z,1008.66
2016-07-30T06:37:25.538Z,1008.59
2016-07-30T06:39:24.203Z,1008.63
2016-07-30T06:40:24.207Z,1008.62
2016-07-30T06:41:24.211Z,1008.57
2016-07-30T06:42:24.282Z,1008.59
2016-07-30T06:43:24.220Z,1008.59
2016-07-30T06:44:24.225Z,1008.58
2016-07-30T06:45:24.230Z,1008.59
2016-07-30T06:46:24.243Z,1008.59
2016-07-30T06:47:24.241Z,1008.57
2016-07-30T06:48:24.244Z,1008.6
2016-07-30T06:49:24.250Z,1008.59
2016-07-30T06:50:24.255Z,1008.64
2016-07-30T06:51:24.336Z,1008.69
2016-07-30T06:52:24.262Z,1008.71
2016-07-30T06:54:24.270Z,1008.7
2016-07-30T06:55:24.275Z,1008.72
2016-07-30T06:56:24.282Z,1008.62
2016-07-30T06:57:24.285Z,1008.66
2016-07-30T06:58:24.289Z,1008.71
2016-07-30T06:59:24.294Z,1008.79
2016-07-30T07:00:25.151Z,1008.78
2016-07-30T07:01:25.408Z,1008.82
2016-07-30T07:02:24.312Z,1008.78
2016-07-30T07:03:24.319Z,1008.71
2016-07-30T07:04:24.323Z,1008.77
2016-07-30T07:05:24.328Z,1008.75
2016-07-30T07:06:24.334Z,1008.75
2016-07-30T07:07:24.341Z,1008.77
2016-07-30T07:09:24.354Z,1008.78
2016-07-30T07:10:24.910Z,1008.7
2016-07-30T07:11:24.366Z,1008.67
2016-07-30T07:12:24.372Z,1008.71
2016-07-30T07:13:24.379Z,1008.74
2016-07-30T07:14:24.388Z,1008.79
2016-07-30T07:15:24.394Z,1008.8
2016-07-30T07:16:24.402Z,1008.93
2016-07-30T07:17:24.409Z,1008.95
2016-07-30T07:18:24.416Z,1009.01
2016-07-30T07:19:24.428Z,1009.02
2016-07-30T07:20:24.429Z,1009.01
2016-07-30T07:21:24.439Z,1009
2016-07-30T07:22:24.447Z,1009.08
2016-07-30T07:23:24.453Z,1009
2016-07-30T07:24:24.462Z,1009.07
2016-07-30T07:25:24.469Z,1009.09
2016-07-30T07:26:24.478Z,1009.26
2016-07-30T07:27:24.488Z,1009.17
2016-07-30T07:28:24.498Z,1009.17
2016-07-30T07:29:24.507Z,1009.19
2016-07-30T07:30:24.515Z,1009.16
2016-07-30T07:31:24.525Z,1009.23
2016-07-30T07:32:24.535Z,1009.26
2016-07-30T07:33:24.546Z,1009.25
2016-07-30T07:34:24.554Z,1009.34
2016-07-30T07:35:24.563Z,1009.42
2016-07-30T07:36:24.573Z,1009.5
2016-07-30T07:37:24.588Z,1009.7
2016-07-30T07:38:24.593Z,1009.48
2016-07-30T07:39:24.607Z,1009.39
2016-07-30T07:40:24.615Z,1009.42
2016-07-30T07:41:24.626Z,1009.41
2016-07-30T07:42:24.640Z,1009.46
2016-07-30T07:43:24.651Z,1009.37
2016-07-30T07:44:24.660Z,1009.67
2016-07-30T07:45:24.673Z,1009.65
2016-07-30T07:46:24.683Z,1009.58
2016-07-30T07:47:24.696Z,1009.65
2016-07-30T07:48:24.707Z,1009.55
2016-07-30T07:49:24.718Z,1009.47
2016-07-30T07:50:24.730Z,1009.7
2016-07-30T07:51:24.743Z,1009.51
2016-07-30T07:52:24.757Z,1009.42
2016-07-30T07:53:24.767Z,1009.48
2016-07-30T07:54:24.780Z,1009.57
2016-07-30T07:55:24.793Z,1009.49
2016-07-30T07:56:24.804Z,1009.39
2016-07-30T07:57:24.820Z,1009.49
2016-07-30T07:58:24.831Z,1009.53
2016-07-30T07:59:24.846Z,1009.48
2016-07-30T08:00:24.857Z,1009.43
2016-07-30T08:01:24.870Z,1009.45
2016-07-30T08:02:24.882Z,1009.37
2016-07-30T08:03:24.897Z,1009.57
2016-07-30T08:04:26.127Z,1009.51
2016-07-30T08:05:24.922Z,1009.45
2016-07-30T08:06:26.130Z,1009.48
2016-07-30T08:07:26.075Z,1009.51
2016-07-30T08:08:24.958Z,1009.73
2016-07-30T08:09:24.971Z,1009.92
2016-07-30T08:10:24.984Z,1010.15
2016-07-30T08:11:24.996Z,1010.27
2016-07-30T08:12:25.009Z,1009.79
2016-07-30T08:13:25.022Z,1009.68
2016-07-30T08:14:25.033Z,1009.94
2016-07-30T08:15:25.047Z,1010.52
2016-07-30T08:16:25.058Z,1010.03
2016-07-30T08:17:25.073Z,1009.93
2016-07-30T08:18:25.083Z,1009.89
2016-07-30T08:19:25.099Z,1009.66
2016-07-30T08:20:25.110Z,1009.6
2016-07-30T08:21:25.125Z,1009.58
2016-07-30T08:22:25.135Z,1009.49
2016-07-30T08:23:25.151Z,1009.55
2016-07-30T08:24:25.168Z,1009.38
2016-07-30T08:25:25.178Z,1009.43
2016-07-30T08:26:25.187Z,1009.45
2016-07-30T08:27:26.353Z,1009.45
2016-07-30T08:28:25.216Z,1009.38
2016-07-30T08:29:25.227Z,1009.34
2016-07-30T08:30:25.238Z,1009.32
2016-07-30T08:31:25.404Z,1009.35
2016-07-30T08:32:25.262Z,1009.28
2016-07-30T08:33:25.275Z,1009.33
2016-07-30T08:34:25.286Z,1009.38
2016-07-30T08:35:25.296Z,1009.37
2016-07-30T08:36:25.309Z,1009.36
2016-07-30T08:37:25.319Z,1009.4
2016-07-30T08:38:25.332Z,1009.38
2016-07-30T08:39:25.342Z,1009.31
2016-07-30T08:40:25.358Z,1009.49
2016-07-30T08:41:25.367Z,1009.43
2016-07-30T08:42:25.374Z,1009.49
2016-07-30T08:43:25.387Z,1009.51
2016-07-30T08:44:25.395Z,1009.48
2016-07-30T08:45:25.405Z,1009.45
2016-07-30T08:46:25.417Z,1009.4
2016-07-30T08:47:25.428Z,1009.43
2016-07-30T08:48:25.436Z,1009.42
2016-07-30T08:49:25.446Z,1009.28
2016-07-30T08:50:25.456Z,1009.32
2016-07-30T08:51:25.467Z,1009.37
2016-07-30T08:52:25.479Z,1009.35
2016-07-30T08:53:25.487Z,1009.37
2016-07-30T08:54:25.499Z,1009.36
2016-07-30T08:55:25.506Z,1009.29
2016-07-30T08:56:25.523Z,1009.32
2016-07-30T08:57:25.529Z,1009.26
2016-07-30T08:58:25.536Z,1009.24
2016-07-30T08:59:25.549Z,1009.31
2016-07-30T09:00:25.561Z,1009.26
2016-07-30T09:01:25.566Z,1009.3
2016-07-30T09:02:25.576Z,1009.38
2016-07-30T09:03:25.586Z,1009.41
2016-07-30T09:04:25.595Z,1009.17
2016-07-30T09:05:25.605Z,1009.34
2016-07-30T09:06:25.614Z,1009.32
2016-07-30T09:07:25.624Z,1009.38
2016-07-30T09:08:25.632Z,1009.43
2016-07-30T09:09:25.651Z,1009.48
2016-07-30T09:10:25.653Z,1009.49
2016-07-30T09:11:25.663Z,1009.54
2016-07-30T09:12:25.670Z,1009.51
2016-07-30T09:13:26.176Z,1009.42
2016-07-30T09:14:25.691Z,1009.36
2016-07-30T09:15:27.068Z,1009.29
2016-07-30T09:16:25.722Z,1009.26
2016-07-30T09:17:25.716Z,1009.26
2016-07-30T09:18:25.727Z,1009.32
2016-07-30T09:19:25.738Z,1009.32
2016-07-30T09:20:25.745Z,1009.37
2016-07-30T09:21:25.801Z,1009.38
2016-07-30T09:22:25.764Z,1009.41
2016-07-30T09:23:26.693Z,1009.45
2016-07-30T09:24:25.785Z,1009.41
2016-07-30T09:25:26.866Z,1009.48
2016-07-30T09:26:25.802Z,1009.52
2016-07-30T09:27:25.814Z,1009.54
2016-07-30T09:28:25.823Z,1009.48
2016-07-30T09:29:25.831Z,1009.44
2016-07-30T09:30:25.841Z,1009.35
2016-07-30T09:31:25.851Z,1009.43
2016-07-30T09:32:25.859Z,1009.42
2016-07-30T09:33:25.871Z,1009.36
2016-07-30T09:34:25.878Z,1009.28
2016-07-30T09:35:25.889Z,1009.24
2016-07-30T09:36:25.897Z,1009.05
2016-07-30T09:39:25.923Z,1008.99
2016-07-30T09:40:26.234Z,1008.96
2016-07-30T09:41:26.095Z,1008.94
2016-07-30T09:42:25.951Z,1008.96
2016-07-30T09:43:26.062Z,1008.91
2016-07-30T09:44:26.072Z,1008.92
2016-07-30T09:45:25.978Z,1008.87
2016-07-30T09:46:25.988Z,1008.84
2016-07-30T09:47:25.997Z,1008.85
2016-07-30T09:48:26.006Z,1008.91
2016-07-30T09:49:26.564Z,1008.9
2016-07-30T09:50:26.521Z,1008.85
2016-07-30T09:51:26.031Z,1008.87
2016-07-30T09:52:26.044Z,1008.82
2016-07-30T09:53:26.047Z,1008.87
2016-07-30T09:54:26.054Z,1008.85
2016-07-30T09:55:26.063Z,1008.92
2016-07-30T09:56:26.073Z,1008.93
2016-07-30T09:57:26.076Z,1008.95
2016-07-30T09:58:26.085Z,1008.9
2016-07-30T09:59:26.090Z,1008.88
2016-07-30T10:00:26.101Z,1008.85
2016-07-30T10:01:26.105Z,1008.83
2016-07-30T10:02:26.114Z,1008.85
2016-07-30T10:03:26.119Z,1008.85
2016-07-30T10:04:26.126Z,1008.85
2016-07-30T10:05:26.132Z,1008.85
2016-07-30T10:06:26.140Z,1008.81
2016-07-30T10:07:26.148Z,1008.79
2016-07-30T10:08:26.153Z,1008.78
2016-07-30T10:10:26.167Z,1008.86
2016-07-30T10:11:26.175Z,1008.87
2016-07-30T10:12:26.181Z,1008.87
2016-07-30T10:13:26.186Z,1008.88
2016-07-30T10:14:26.194Z,1008.89
2016-07-30T10:15:26.199Z,1008.86
2016-07-30T10:16:26.204Z,1008.85
2016-07-30T10:17:26.210Z,1008.88
2016-07-30T10:18:26.219Z,1008.88
2016-07-30T10:19:26.222Z,1008.88
2016-07-30T10:20:26.228Z,1008.9
2016-07-30T10:21:26.235Z,1008.94
2016-07-30T10:22:26.241Z,1008.98
2016-07-30T10:23:26.246Z,1009.04
2016-07-30T10:25:26.258Z,1008.96
2016-07-30T10:26:26.262Z,1008.9
2016-07-30T10:27:26.269Z,1008.92
2016-07-30T10:28:26.274Z,1008.95
2016-07-30T10:29:26.282Z,1008.95
2016-07-30T10:30:26.287Z,1008.97
2016-07-30T10:31:26.292Z,1009.01
2016-07-30T10:32:27.186Z,1009.05
2016-07-30T10:33:26.854Z,1009.02
2016-07-30T10:34:26.309Z,1009.03
2016-07-30T10:35:26.312Z,1009.06
2016-07-30T10:36:26.319Z,1009.03
2016-07-30T10:37:26.326Z,1009.05
2016-07-30T10:38:26.328Z,1009.11
2016-07-30T10:40:26.344Z,1009.17
2016-07-30T10:41:26.347Z,1009.07
2016-07-30T10:42:26.357Z,1009.01
2016-07-30T10:43:27.329Z,1008.93
2016-07-30T10:44:26.363Z,1008.79
2016-07-30T10:45:26.370Z,1008.83
2016-07-30T10:46:26.374Z,1008.99
2016-07-30T10:47:26.753Z,1009.02
2016-07-30T10:48:26.385Z,1008.95
2016-07-30T10:49:26.389Z,1008.87
2016-07-30T10:50:26.394Z,1008.94
2016-07-30T10:51:26.403Z,1008.86
2016-07-30T10:52:26.408Z,1008.83
2016-07-30T10:53:26.412Z,1008.84
2016-07-30T10:55:26.423Z,1008.79
2016-07-30T10:56:26.427Z,1008.77
2016-07-30T10:57:26.432Z,1008.67
2016-07-30T10:58:26.439Z,1008.63
2016-07-30T10:59:26.443Z,1008.6
2016-07-30T11:00:26.449Z,1008.6
2016-07-30T11:01:26.455Z,1008.62
2016-07-30T11:02:26.509Z,1008.62
2016-07-30T11:03:26.464Z,1008.84
2016-07-30T11:04:26.470Z,1008.93
2016-07-30T11:05:26.476Z,1008.84
2016-07-30T11:06:26.479Z,1008.88
2016-07-30T11:07:26.486Z,1008.96
2016-07-30T11:08:26.489Z,1008.92
2016-07-30T11:09:26.496Z,1008.95
2016-07-30T11:10:26.499Z,1008.98
2016-07-30T11:11:26.505Z,1009.09
2016-07-30T11:12:26.508Z,1009.05
2016-07-30T11:13:26.514Z,1009.01
2016-07-30T11:14:26.520Z,1008.9
2016-07-30T11:15:26.525Z,1008.75
2016-07-30T11:16:26.531Z,1008.84
2016-07-30T11:17:26.535Z,1008.77
2016-07-30T11:18:26.540Z,1008.81
2016-07-30T11:19:26.547Z,1008.9
2016-07-30T11:20:26.549Z,1008.95
2016-07-30T11:21:26.553Z,1008.92
2016-07-30T11:22:26.560Z,1009.03
2016-07-30T11:23:26.566Z,1009.06
2016-07-30T11:24:26.573Z,1009.05
2016-07-30T11:25:26.574Z,1009
2016-07-30T11:26:26.581Z,1008.97
2016-07-30T11:27:26.588Z,1008.96
2016-07-30T11:28:26.592Z,1008.93
2016-07-30T11:29:26.597Z,1008.86
2016-07-30T11:30:26.604Z,1008.87
2016-07-30T11:31:26.608Z,1008.92
2016-07-30T11:32:26.612Z,1008.95
2016-07-30T11:33:26.618Z,1009.02
2016-07-30T11:34:26.626Z,1009.08
2016-07-30T11:35:26.631Z,1008.97
2016-07-30T11:36:26.636Z,1008.96
2016-07-30T11:37:26.642Z,1009.07
2016-07-30T11:38:26.645Z,1009.06
2016-07-30T11:39:26.654Z,1009.05
2016-07-30T11:40:26.659Z,1009.07
2016-07-30T11:41:26.664Z,1009.09
2016-07-30T11:42:26.668Z,1009.04
2016-07-30T11:43:26.682Z,1009.04
2016-07-30T11:44:26.682Z,1009.03
2016-07-30T11:45:26.696Z,1008.99
2016-07-30T11:46:26.692Z,1009.02
2016-07-30T11:47:26.697Z,1009.07
2016-07-30T11:48:26.703Z,1009.1
2016-07-30T11:49:26.709Z,1009.26
2016-07-30T11:50:26.715Z,1009.23
2016-07-30T11:51:26.722Z,1009.23
2016-07-30T11:52:26.729Z,1009.21
2016-07-30T11:53:27.276Z,1009.23
2016-07-30T11:54:26.744Z,1009.27
2016-07-30T11:55:26.749Z,1009.27
2016-07-30T11:56:26.754Z,1009.25
2016-07-30T11:57:26.762Z,1009.34
2016-07-30T11:58:26.769Z,1009.26
2016-07-30T12:00:26.782Z,1009.37
2016-07-30T12:01:27.458Z,1009.44
2016-07-30T12:02:26.962Z,1009.35
2016-07-30T12:03:26.804Z,1009.24
2016-07-30T12:04:26.811Z,1009.01
2016-07-30T12:05:26.820Z,1008.81
2016-07-30T12:06:26.925Z,1008.78
2016-07-30T12:07:26.833Z,1008.83
2016-07-30T12:08:26.842Z,1009.01
2016-07-30T12:09:26.851Z,1009.01
2016-07-30T12:10:26.857Z,1009.07
2016-07-30T12:11:26.865Z,1009.1
2016-07-30T12:12:26.873Z,1009.16
2016-07-30T12:13:26.878Z,1009.11
2016-07-30T12:14:26.886Z,1009.21
2016-07-30T12:15:26.897Z,1009.19
2016-07-30T12:16:26.903Z,1009.23
2016-07-30T12:17:26.909Z,1009.22
2016-07-30T12:18:26.917Z,1009.19
2016-07-30T12:19:26.926Z,1009.15
2016-07-30T12:20:26.933Z,1009.18
2016-07-30T12:21:26.939Z,1009.21
2016-07-30T12:22:27.550Z,1009.2
2016-07-30T12:23:26.956Z,1009.2
2016-07-30T12:24:26.962Z,1009.12
2016-07-30T12:25:26.973Z,1009.09
2016-07-30T12:26:27.029Z,1009.06
2016-07-30T12:27:26.988Z,1009.09
2016-07-30T12:28:26.996Z,1009.01
2016-07-30T12:29:27.003Z,1009.03
2016-07-30T12:30:27.012Z,1009.07
2016-07-30T12:31:27.019Z,1009.06